sensor_id;sensor_type;location;lat;lon;timestamp;temperature;humidity
49236;DHT22;35067;48.134;8.378;2023-02-17T00:00:01;7.60;78.90
49236;DHT22;35067;48.134;8.378;2023-02-17T00:02:02;7.60;79.00
49236;DHT22;35067;48.134;8.378;2023-02-17T00:04:03;7.60;79.40
49236;DHT22;35067;48.134;8.378;2023-02-17T00:06:08;7.70;78.40
49236;DHT22;35067;48.134;8.378;2023-02-17T00:08:10;7.70;78.50
49236;DHT22;35067;48.134;8.378;2023-02-17T00:10:11;7.70;78.40
49236;DHT22;35067;48.134;8.378;2023-02-17T00:12:11;7.70;77.80
49236;DHT22;35067;48.134;8.378;2023-02-17T00:14:13;7.70;77.10
49236;DHT22;35067;48.134;8.378;2023-02-17T00:16:24;7.70;76.80
49236;DHT22;35067;48.134;8.378;2023-02-17T00:18:26;7.70;76.80
49236;DHT22;35067;48.134;8.378;2023-02-17T00:20:28;7.70;76.60
49236;DHT22;35067;48.134;8.378;2023-02-17T00:22:28;7.80;76.50
49236;DHT22;35067;48.134;8.378;2023-02-17T00:24:30;7.80;76.40
49236;DHT22;35067;48.134;8.378;2023-02-17T00:26:31;7.80;77.10
49236;DHT22;35067;48.134;8.378;2023-02-17T00:28:32;7.80;77.20
49236;DHT22;35067;48.134;8.378;2023-02-17T00:30:33;7.90;77.30
49236;DHT22;35067;48.134;8.378;2023-02-17T00:32:35;7.90;77.40
49236;DHT22;35067;48.134;8.378;2023-02-17T00:34:36;7.80;78.00
49236;DHT22;35067;48.134;8.378;2023-02-17T00:36:38;7.80;78.40
49236;DHT22;35067;48.134;8.378;2023-02-17T00:38:38;7.80;79.00
49236;DHT22;35067;48.134;8.378;2023-02-17T00:40:39;7.80;79.50
49236;DHT22;35067;48.134;8.378;2023-02-17T00:42:41;7.80;80.00
49236;DHT22;35067;48.134;8.378;2023-02-17T00:44:41;7.80;80.50
49236;DHT22;35067;48.134;8.378;2023-02-17T00:46:42;7.80;81.40
49236;DHT22;35067;48.134;8.378;2023-02-17T00:48:44;7.80;81.40
49236;DHT22;35067;48.134;8.378;2023-02-17T00:50:45;7.80;81.30
49236;DHT22;35067;48.134;8.378;2023-02-17T00:52:46;7.80;81.70
49236;DHT22;35067;48.134;8.378;2023-02-17T00:54:47;7.80;82.80
49236;DHT22;35067;48.134;8.378;2023-02-17T00:56:48;7.90;81.80
49236;DHT22;35067;48.134;8.378;2023-02-17T00:58:48;7.80;83.30
49236;DHT22;35067;48.134;8.378;2023-02-17T01:00:49;7.80;85.40
49236;DHT22;35067;48.134;8.378;2023-02-17T01:02:50;7.80;85.70
49236;DHT22;35067;48.134;8.378;2023-02-17T01:04:50;7.80;85.70
49236;DHT22;35067;48.134;8.378;2023-02-17T01:06:51;7.80;86.40
49236;DHT22;35067;48.134;8.378;2023-02-17T01:08:52;7.80;86.60
49236;DHT22;35067;48.134;8.378;2023-02-17T01:10:53;7.90;86.50
49236;DHT22;35067;48.134;8.378;2023-02-17T01:12:53;7.90;87.10
49236;DHT22;35067;48.134;8.378;2023-02-17T01:14:54;7.80;88.80
49236;DHT22;35067;48.134;8.378;2023-02-17T01:16:55;7.70;90.40
49236;DHT22;35067;48.134;8.378;2023-02-17T01:18:55;7.80;90.50
49236;DHT22;35067;48.134;8.378;2023-02-17T01:20:56;7.70;90.60
49236;DHT22;35067;48.134;8.378;2023-02-17T01:22:57;7.80;91.20
49236;DHT22;35067;48.134;8.378;2023-02-17T01:24:57;7.70;92.20
49236;DHT22;35067;48.134;8.378;2023-02-17T01:26:58;7.60;93.10
49236;DHT22;35067;48.134;8.378;2023-02-17T01:28:59;7.60;93.20
49236;DHT22;35067;48.134;8.378;2023-02-17T01:31:05;7.60;93.60
49236;DHT22;35067;48.134;8.378;2023-02-17T01:33:07;7.70;94.30
49236;DHT22;35067;48.134;8.378;2023-02-17T01:35:07;7.50;95.20
49236;DHT22;35067;48.134;8.378;2023-02-17T01:37:08;7.50;95.40
49236;DHT22;35067;48.134;8.378;2023-02-17T01:39:12;7.60;95.30
49236;DHT22;35067;48.134;8.378;2023-02-17T01:41:15;7.70;95.00
49236;DHT22;35067;48.134;8.378;2023-02-17T01:43:17;7.70;94.80
49236;DHT22;35067;48.134;8.378;2023-02-17T01:47:19;7.80;94.30
49236;DHT22;35067;48.134;8.378;2023-02-17T01:49:32;7.70;94.60
49236;DHT22;35067;48.134;8.378;2023-02-17T01:51:36;7.70;94.90
49236;DHT22;35067;48.134;8.378;2023-02-17T01:53:45;7.70;95.10
49236;DHT22;35067;48.134;8.378;2023-02-17T01:55:49;7.70;94.80
49236;DHT22;35067;48.134;8.378;2023-02-17T01:57:53;7.70;94.80
49236;DHT22;35067;48.134;8.378;2023-02-17T01:59:55;7.80;94.90
49236;DHT22;35067;48.134;8.378;2023-02-17T02:01:58;7.70;95.20
49236;DHT22;35067;48.134;8.378;2023-02-17T02:04:02;7.70;95.50
49236;DHT22;35067;48.134;8.378;2023-02-17T02:06:14;7.70;95.50
49236;DHT22;35067;48.134;8.378;2023-02-17T02:08:17;7.70;95.70
49236;DHT22;35067;48.134;8.378;2023-02-17T02:10:19;7.70;95.50
49236;DHT22;35067;48.134;8.378;2023-02-17T02:12:23;7.80;96.00
49236;DHT22;35067;48.134;8.378;2023-02-17T02:14:25;7.80;95.00
49236;DHT22;35067;48.134;8.378;2023-02-17T02:17:05;7.90;94.70
49236;DHT22;35067;48.134;8.378;2023-02-17T02:34:28;8.00;93.20
49236;DHT22;35067;48.134;8.378;2023-02-17T02:39:10;8.20;92.50
49236;DHT22;35067;48.134;8.378;2023-02-17T02:41:18;8.20;92.10
49236;DHT22;35067;48.134;8.378;2023-02-17T02:43:21;8.10;92.70
49236;DHT22;35067;48.134;8.378;2023-02-17T02:45:23;8.00;92.80
49236;DHT22;35067;48.134;8.378;2023-02-17T02:49:48;8.10;92.60
49236;DHT22;35067;48.134;8.378;2023-02-17T02:56:43;8.20;92.90
49236;DHT22;35067;48.134;8.378;2023-02-17T03:03:50;8.30;92.50
49236;DHT22;35067;48.134;8.378;2023-02-17T03:06:30;8.30;92.80
49236;DHT22;35067;48.134;8.378;2023-02-17T03:08:45;8.20;93.30
49236;DHT22;35067;48.134;8.378;2023-02-17T03:10:52;8.30;93.30
49236;DHT22;35067;48.134;8.378;2023-02-17T03:12:54;8.30;93.10
49236;DHT22;35067;48.134;8.378;2023-02-17T03:15:00;8.40;93.10
49236;DHT22;35067;48.134;8.378;2023-02-17T03:17:04;8.30;93.40
49236;DHT22;35067;48.134;8.378;2023-02-17T03:19:06;8.30;93.30
49236;DHT22;35067;48.134;8.378;2023-02-17T03:21:14;8.40;93.00
49236;DHT22;35067;48.134;8.378;2023-02-17T03:23:16;8.40;93.40
49236;DHT22;35067;48.134;8.378;2023-02-17T03:25:16;8.40;94.00
49236;DHT22;35067;48.134;8.378;2023-02-17T03:27:17;8.30;94.50
49236;DHT22;35067;48.134;8.378;2023-02-17T03:29:18;8.40;94.30
49236;DHT22;35067;48.134;8.378;2023-02-17T03:31:18;8.50;94.00
49236;DHT22;35067;48.134;8.378;2023-02-17T03:33:19;8.40;94.20
49236;DHT22;35067;48.134;8.378;2023-02-17T03:35:20;8.30;94.80
49236;DHT22;35067;48.134;8.378;2023-02-17T03:37:21;8.30;94.90
49236;DHT22;35067;48.134;8.378;2023-02-17T03:39:21;8.20;95.40
49236;DHT22;35067;48.134;8.378;2023-02-17T03:41:22;8.20;95.40
49236;DHT22;35067;48.134;8.378;2023-02-17T03:43:23;8.30;95.60
49236;DHT22;35067;48.134;8.378;2023-02-17T03:45:23;8.30;95.80
49236;DHT22;35067;48.134;8.378;2023-02-17T03:47:24;8.20;96.10
49236;DHT22;35067;48.134;8.378;2023-02-17T03:49:25;8.20;96.10
49236;DHT22;35067;48.134;8.378;2023-02-17T03:51:26;8.20;96.00
49236;DHT22;35067;48.134;8.378;2023-02-17T03:53:26;8.20;96.00
49236;DHT22;35067;48.134;8.378;2023-02-17T03:55:27;8.20;95.90
49236;DHT22;35067;48.134;8.378;2023-02-17T03:57:28;8.10;96.20
49236;DHT22;35067;48.134;8.378;2023-02-17T03:59:31;8.10;96.00
49236;DHT22;35067;48.134;8.378;2023-02-17T04:01:31;8.20;95.50
49236;DHT22;35067;48.134;8.378;2023-02-17T04:03:32;8.20;94.30
49236;DHT22;35067;48.134;8.378;2023-02-17T04:05:33;8.20;93.60
49236;DHT22;35067;48.134;8.378;2023-02-17T04:07:34;8.10;93.80
49236;DHT22;35067;48.134;8.378;2023-02-17T04:09:35;8.10;93.20
49236;DHT22;35067;48.134;8.378;2023-02-17T04:11:35;8.20;93.20
49236;DHT22;35067;48.134;8.378;2023-02-17T04:13:36;8.20;92.10
49236;DHT22;35067;48.134;8.378;2023-02-17T04:15:37;8.20;91.90
49236;DHT22;35067;48.134;8.378;2023-02-17T04:17:38;8.20;90.80
49236;DHT22;35067;48.134;8.378;2023-02-17T04:19:39;8.20;89.30
49236;DHT22;35067;48.134;8.378;2023-02-17T04:21:40;8.20;86.80
49236;DHT22;35067;48.134;8.378;2023-02-17T04:23:40;8.20;86.00
49236;DHT22;35067;48.134;8.378;2023-02-17T04:25:41;8.20;85.90
49236;DHT22;35067;48.134;8.378;2023-02-17T04:27:42;8.30;85.40
49236;DHT22;35067;48.134;8.378;2023-02-17T04:29:43;8.20;84.80
49236;DHT22;35067;48.134;8.378;2023-02-17T04:31:43;8.10;83.80
49236;DHT22;35067;48.134;8.378;2023-02-17T04:33:44;8.10;84.10
49236;DHT22;35067;48.134;8.378;2023-02-17T04:35:46;8.00;84.10
49236;DHT22;35067;48.134;8.378;2023-02-17T04:37:47;8.00;84.80
49236;DHT22;35067;48.134;8.378;2023-02-17T04:39:47;8.00;84.10
49236;DHT22;35067;48.134;8.378;2023-02-17T04:41:48;7.90;84.30
49236;DHT22;35067;48.134;8.378;2023-02-17T04:43:49;7.90;83.50
49236;DHT22;35067;48.134;8.378;2023-02-17T04:45:50;7.90;83.40
49236;DHT22;35067;48.134;8.378;2023-02-17T04:47:51;7.90;82.50
49236;DHT22;35067;48.134;8.378;2023-02-17T04:49:52;7.90;82.30
49236;DHT22;35067;48.134;8.378;2023-02-17T04:51:52;7.90;82.40
49236;DHT22;35067;48.134;8.378;2023-02-17T04:53:53;8.00;81.80
49236;DHT22;35067;48.134;8.378;2023-02-17T04:55:54;8.00;81.30
49236;DHT22;35067;48.134;8.378;2023-02-17T04:57:54;8.10;81.00
49236;DHT22;35067;48.134;8.378;2023-02-17T04:59:55;8.10;80.90
49236;DHT22;35067;48.134;8.378;2023-02-17T05:01:56;8.10;80.90
49236;DHT22;35067;48.134;8.378;2023-02-17T05:03:56;8.10;80.70
49236;DHT22;35067;48.134;8.378;2023-02-17T05:05:57;8.10;80.10
49236;DHT22;35067;48.134;8.378;2023-02-17T05:07:58;8.20;80.10
49236;DHT22;35067;48.134;8.378;2023-02-17T05:09:58;8.20;80.00
49236;DHT22;35067;48.134;8.378;2023-02-17T05:11:59;8.10;80.30
49236;DHT22;35067;48.134;8.378;2023-02-17T05:14:00;8.20;80.60
49236;DHT22;35067;48.134;8.378;2023-02-17T05:16:01;8.10;80.80
49236;DHT22;35067;48.134;8.378;2023-02-17T05:18:01;8.10;81.00
49236;DHT22;35067;48.134;8.378;2023-02-17T05:20:03;8.20;80.80
49236;DHT22;35067;48.134;8.378;2023-02-17T05:22:05;8.20;81.10
49236;DHT22;35067;48.134;8.378;2023-02-17T05:24:06;8.20;81.50
49236;DHT22;35067;48.134;8.378;2023-02-17T05:26:07;8.10;82.00
49236;DHT22;35067;48.134;8.378;2023-02-17T05:28:08;8.10;82.10
49236;DHT22;35067;48.134;8.378;2023-02-17T05:30:09;8.10;82.50
49236;DHT22;35067;48.134;8.378;2023-02-17T05:32:10;8.10;83.30
49236;DHT22;35067;48.134;8.378;2023-02-17T05:34:11;8.10;85.70
49236;DHT22;35067;48.134;8.378;2023-02-17T05:36:12;8.00;85.80
49236;DHT22;35067;48.134;8.378;2023-02-17T05:38:13;7.90;87.60
49236;DHT22;35067;48.134;8.378;2023-02-17T05:40:13;7.90;89.10
49236;DHT22;35067;48.134;8.378;2023-02-17T05:42:14;7.80;90.10
49236;DHT22;35067;48.134;8.378;2023-02-17T05:44:15;7.70;90.50
49236;DHT22;35067;48.134;8.378;2023-02-17T05:46:16;7.70;90.80
49236;DHT22;35067;48.134;8.378;2023-02-17T05:48:16;7.70;90.80
49236;DHT22;35067;48.134;8.378;2023-02-17T05:50:17;7.70;90.60
49236;DHT22;35067;48.134;8.378;2023-02-17T05:52:18;7.70;90.50
49236;DHT22;35067;48.134;8.378;2023-02-17T05:54:19;7.70;90.50
49236;DHT22;35067;48.134;8.378;2023-02-17T05:56:19;7.70;90.20
49236;DHT22;35067;48.134;8.378;2023-02-17T05:58:20;7.80;90.20
49236;DHT22;35067;48.134;8.378;2023-02-17T06:00:21;7.90;89.80
49236;DHT22;35067;48.134;8.378;2023-02-17T06:02:21;7.90;90.00
49236;DHT22;35067;48.134;8.378;2023-02-17T06:04:22;7.90;90.00
49236;DHT22;35067;48.134;8.378;2023-02-17T06:06:23;7.90;90.00
49236;DHT22;35067;48.134;8.378;2023-02-17T06:08:24;7.80;90.40
49236;DHT22;35067;48.134;8.378;2023-02-17T06:10:24;7.80;90.70
49236;DHT22;35067;48.134;8.378;2023-02-17T06:12:25;7.80;90.80
49236;DHT22;35067;48.134;8.378;2023-02-17T06:14:26;7.80;91.10
49236;DHT22;35067;48.134;8.378;2023-02-17T06:16:26;7.80;91.60
49236;DHT22;35067;48.134;8.378;2023-02-17T06:18:27;7.80;92.00
49236;DHT22;35067;48.134;8.378;2023-02-17T06:20:28;7.80;92.00
49236;DHT22;35067;48.134;8.378;2023-02-17T06:22:29;7.80;92.30
49236;DHT22;35067;48.134;8.378;2023-02-17T06:24:30;7.80;93.00
49236;DHT22;35067;48.134;8.378;2023-02-17T06:26:30;7.70;93.20
49236;DHT22;35067;48.134;8.378;2023-02-17T06:28:31;7.70;93.70
49236;DHT22;35067;48.134;8.378;2023-02-17T06:30:32;7.70;94.40
49236;DHT22;35067;48.134;8.378;2023-02-17T06:32:32;7.70;95.00
49236;DHT22;35067;48.134;8.378;2023-02-17T06:34:34;7.70;95.70
49236;DHT22;35067;48.134;8.378;2023-02-17T06:36:34;7.70;95.70
49236;DHT22;35067;48.134;8.378;2023-02-17T06:38:35;7.70;96.80
49236;DHT22;35067;48.134;8.378;2023-02-17T06:40:36;7.70;97.40
49236;DHT22;35067;48.134;8.378;2023-02-17T06:42:36;7.70;97.60
49236;DHT22;35067;48.134;8.378;2023-02-17T06:44:37;7.70;98.00
49236;DHT22;35067;48.134;8.378;2023-02-17T06:46:38;7.70;97.90
49236;DHT22;35067;48.134;8.378;2023-02-17T06:48:38;7.80;97.30
49236;DHT22;35067;48.134;8.378;2023-02-17T06:50:39;7.80;97.30
49236;DHT22;35067;48.134;8.378;2023-02-17T06:52:40;7.80;98.00
49236;DHT22;35067;48.134;8.378;2023-02-17T06:54:40;7.90;98.00
49236;DHT22;35067;48.134;8.378;2023-02-17T06:56:41;7.90;97.90
49236;DHT22;35067;48.134;8.378;2023-02-17T06:58:42;8.00;97.60
49236;DHT22;35067;48.134;8.378;2023-02-17T07:00:42;8.00;98.10
49236;DHT22;35067;48.134;8.378;2023-02-17T07:02:43;7.90;98.90
49236;DHT22;35067;48.134;8.378;2023-02-17T07:04:44;7.90;99.30
49236;DHT22;35067;48.134;8.378;2023-02-17T07:06:44;7.90;99.90
49236;DHT22;35067;48.134;8.378;2023-02-17T07:08:45;7.80;99.90
49236;DHT22;35067;48.134;8.378;2023-02-17T07:10:46;7.70;99.90
49236;DHT22;35067;48.134;8.378;2023-02-17T07:12:47;7.70;99.90
49236;DHT22;35067;48.134;8.378;2023-02-17T07:14:47;7.70;99.90
49236;DHT22;35067;48.134;8.378;2023-02-17T07:16:48;7.70;99.90
49236;DHT22;35067;48.134;8.378;2023-02-17T07:18:50;7.60;99.90
49236;DHT22;35067;48.134;8.378;2023-02-17T07:20:51;7.60;99.90
49236;DHT22;35067;48.134;8.378;2023-02-17T07:22:51;7.60;99.90
49236;DHT22;35067;48.134;8.378;2023-02-17T07:24:52;7.70;99.90
49236;DHT22;35067;48.134;8.378;2023-02-17T07:26:53;7.80;99.90
49236;DHT22;35067;48.134;8.378;2023-02-17T07:28:55;7.80;99.90
49236;DHT22;35067;48.134;8.378;2023-02-17T07:30:56;7.80;99.90
49236;DHT22;35067;48.134;8.378;2023-02-17T07:32:56;7.70;99.90
49236;DHT22;35067;48.134;8.378;2023-02-17T07:34:57;7.70;99.90
49236;DHT22;35067;48.134;8.378;2023-02-17T07:36:58;7.70;99.90
49236;DHT22;35067;48.134;8.378;2023-02-17T07:38:58;7.60;99.90
49236;DHT22;35067;48.134;8.378;2023-02-17T07:41:07;7.50;99.90
49236;DHT22;35067;48.134;8.378;2023-02-17T07:43:12;7.50;99.90
49236;DHT22;35067;48.134;8.378;2023-02-17T07:45:12;7.50;99.90
49236;DHT22;35067;48.134;8.378;2023-02-17T07:47:13;7.50;99.90
49236;DHT22;35067;48.134;8.378;2023-02-17T07:49:14;7.50;99.90
49236;DHT22;35067;48.134;8.378;2023-02-17T07:51:18;7.50;99.90
49236;DHT22;35067;48.134;8.378;2023-02-17T07:53:20;7.60;99.90
49236;DHT22;35067;48.134;8.378;2023-02-17T07:55:21;7.70;99.90
49236;DHT22;35067;48.134;8.378;2023-02-17T07:57:23;7.70;99.90
49236;DHT22;35067;48.134;8.378;2023-02-17T07:59:24;7.70;99.90
49236;DHT22;35067;48.134;8.378;2023-02-17T08:01:25;7.70;99.90
49236;DHT22;35067;48.134;8.378;2023-02-17T08:03:26;7.70;99.90
49236;DHT22;35067;48.134;8.378;2023-02-17T08:05:26;7.80;99.90
49236;DHT22;35067;48.134;8.378;2023-02-17T08:07:27;7.90;99.90
49236;DHT22;35067;48.134;8.378;2023-02-17T08:09:28;8.00;99.90
49236;DHT22;35067;48.134;8.378;2023-02-17T08:11:47;8.00;99.90
49236;DHT22;35067;48.134;8.378;2023-02-17T08:14:06;8.00;99.90
49236;DHT22;35067;48.134;8.378;2023-02-17T08:16:07;8.00;99.90
49236;DHT22;35067;48.134;8.378;2023-02-17T08:18:08;8.00;99.90
49236;DHT22;35067;48.134;8.378;2023-02-17T08:20:09;8.00;99.90
49236;DHT22;35067;48.134;8.378;2023-02-17T08:22:10;8.10;99.90
49236;DHT22;35067;48.134;8.378;2023-02-17T08:24:11;8.10;99.90
49236;DHT22;35067;48.134;8.378;2023-02-17T08:26:11;8.20;99.90
49236;DHT22;35067;48.134;8.378;2023-02-17T08:28:12;8.30;99.90
49236;DHT22;35067;48.134;8.378;2023-02-17T08:30:13;8.30;99.90
49236;DHT22;35067;48.134;8.378;2023-02-17T08:32:15;8.30;99.90
49236;DHT22;35067;48.134;8.378;2023-02-17T08:34:16;8.40;99.90
49236;DHT22;35067;48.134;8.378;2023-02-17T08:36:18;8.40;99.90
49236;DHT22;35067;48.134;8.378;2023-02-17T08:38:21;8.50;99.90
49236;DHT22;35067;48.134;8.378;2023-02-17T08:40:22;8.60;99.90
49236;DHT22;35067;48.134;8.378;2023-02-17T08:42:25;8.70;99.90
49236;DHT22;35067;48.134;8.378;2023-02-17T08:44:26;8.70;99.90
49236;DHT22;35067;48.134;8.378;2023-02-17T08:46:27;8.70;99.90
49236;DHT22;35067;48.134;8.378;2023-02-17T08:48:28;8.70;99.90
49236;DHT22;35067;48.134;8.378;2023-02-17T08:50:30;8.70;99.90
49236;DHT22;35067;48.134;8.378;2023-02-17T08:52:33;8.80;99.90
49236;DHT22;35067;48.134;8.378;2023-02-17T08:54:34;8.90;99.90
49236;DHT22;35067;48.134;8.378;2023-02-17T08:56:36;8.90;99.90
49236;DHT22;35067;48.134;8.378;2023-02-17T08:58:38;8.90;99.90
49236;DHT22;35067;48.134;8.378;2023-02-17T09:00:39;9.00;99.90
49236;DHT22;35067;48.134;8.378;2023-02-17T09:02:39;9.10;99.90
49236;DHT22;35067;48.134;8.378;2023-02-17T09:04:42;9.20;99.90
49236;DHT22;35067;48.134;8.378;2023-02-17T09:06:46;9.00;99.90
49236;DHT22;35067;48.134;8.378;2023-02-17T09:08:49;9.00;99.90
49236;DHT22;35067;48.134;8.378;2023-02-17T09:10:51;9.10;99.90
49236;DHT22;35067;48.134;8.378;2023-02-17T09:12:51;8.90;99.90
49236;DHT22;35067;48.134;8.378;2023-02-17T09:14:52;8.90;99.90
49236;DHT22;35067;48.134;8.378;2023-02-17T09:16:54;8.80;99.90
49236;DHT22;35067;48.134;8.378;2023-02-17T09:18:55;8.90;99.90
49236;DHT22;35067;48.134;8.378;2023-02-17T09:20:56;8.90;99.90
49236;DHT22;35067;48.134;8.378;2023-02-17T09:22:59;8.80;99.90
49236;DHT22;35067;48.134;8.378;2023-02-17T09:25:00;8.90;99.90
49236;DHT22;35067;48.134;8.378;2023-02-17T09:27:01;9.00;99.90
49236;DHT22;35067;48.134;8.378;2023-02-17T09:29:03;9.10;99.90
49236;DHT22;35067;48.134;8.378;2023-02-17T09:31:09;9.30;99.90
49236;DHT22;35067;48.134;8.378;2023-02-17T09:33:10;9.40;99.90
49236;DHT22;35067;48.134;8.378;2023-02-17T09:35:15;9.30;99.90
49236;DHT22;35067;48.134;8.378;2023-02-17T09:37:16;9.20;99.90
49236;DHT22;35067;48.134;8.378;2023-02-17T09:39:17;9.20;99.90
49236;DHT22;35067;48.134;8.378;2023-02-17T09:41:25;9.20;99.90
49236;DHT22;35067;48.134;8.378;2023-02-17T09:43:32;9.20;99.90
49236;DHT22;35067;48.134;8.378;2023-02-17T09:45:34;9.20;99.90
49236;DHT22;35067;48.134;8.378;2023-02-17T09:47:57;9.20;99.90
49236;DHT22;35067;48.134;8.378;2023-02-17T09:50:05;9.10;99.90
49236;DHT22;35067;48.134;8.378;2023-02-17T09:52:23;9.10;99.90
49236;DHT22;35067;48.134;8.378;2023-02-17T09:54:36;9.10;99.90
49236;DHT22;35067;48.134;8.378;2023-02-17T09:56:46;9.10;99.90
49236;DHT22;35067;48.134;8.378;2023-02-17T09:59:15;9.20;99.90
49236;DHT22;35067;48.134;8.378;2023-02-17T10:01:21;9.20;99.90
49236;DHT22;35067;48.134;8.378;2023-02-17T10:03:36;9.20;99.90
49236;DHT22;35067;48.134;8.378;2023-02-17T10:08:13;9.40;99.90
49236;DHT22;35067;48.134;8.378;2023-02-17T10:10:27;9.90;99.90
49236;DHT22;35067;48.134;8.378;2023-02-17T10:12:35;10.40;99.90
49236;DHT22;35067;48.134;8.378;2023-02-17T10:14:47;10.50;99.90
49236;DHT22;35067;48.134;8.378;2023-02-17T10:16:58;10.80;99.30
49236;DHT22;35067;48.134;8.378;2023-02-17T10:19:27;10.80;99.20
49236;DHT22;35067;48.134;8.378;2023-02-17T10:21:34;10.70;99.60
49236;DHT22;35067;48.134;8.378;2023-02-17T10:23:38;10.80;99.60
49236;DHT22;35067;48.134;8.378;2023-02-17T10:28:02;11.00;99.00
49236;DHT22;35067;48.134;8.378;2023-02-17T10:32:24;10.90;99.20
49236;DHT22;35067;48.134;8.378;2023-02-17T10:37:02;11.10;99.20
49236;DHT22;35067;48.134;8.378;2023-02-17T10:41:53;11.00;99.20
49236;DHT22;35067;48.134;8.378;2023-02-17T10:43:55;10.70;99.90
49236;DHT22;35067;48.134;8.378;2023-02-17T10:45:56;10.60;99.90
49236;DHT22;35067;48.134;8.378;2023-02-17T10:48:12;10.50;99.90
49236;DHT22;35067;48.134;8.378;2023-02-17T10:50:19;10.50;99.90
49236;DHT22;35067;48.134;8.378;2023-02-17T10:52:24;10.50;99.90
49236;DHT22;35067;48.134;8.378;2023-02-17T10:54:38;10.50;99.90
49236;DHT22;35067;48.134;8.378;2023-02-17T10:56:48;10.60;99.90
49236;DHT22;35067;48.134;8.378;2023-02-17T10:58:52;10.50;99.90
49236;DHT22;35067;48.134;8.378;2023-02-17T11:00:54;10.40;99.90
49236;DHT22;35067;48.134;8.378;2023-02-17T11:02:56;10.30;99.90
49236;DHT22;35067;48.134;8.378;2023-02-17T11:04:57;10.40;99.90
49236;DHT22;35067;48.134;8.378;2023-02-17T11:07:00;10.30;99.90
49236;DHT22;35067;48.134;8.378;2023-02-17T11:09:05;10.10;99.90
49236;DHT22;35067;48.134;8.378;2023-02-17T11:11:24;10.00;99.90
49236;DHT22;35067;48.134;8.378;2023-02-17T11:13:34;10.10;99.90
49236;DHT22;35067;48.134;8.378;2023-02-17T11:15:44;10.20;99.90
49236;DHT22;35067;48.134;8.378;2023-02-17T11:17:46;10.30;99.90
49236;DHT22;35067;48.134;8.378;2023-02-17T11:19:56;10.20;99.90
49236;DHT22;35067;48.134;8.378;2023-02-17T11:21:58;10.10;99.90
49236;DHT22;35067;48.134;8.378;2023-02-17T11:24:02;10.20;99.90
49236;DHT22;35067;48.134;8.378;2023-02-17T11:26:10;10.20;99.90
49236;DHT22;35067;48.134;8.378;2023-02-17T11:28:22;10.30;99.90
49236;DHT22;35067;48.134;8.378;2023-02-17T11:30:25;10.40;99.90
49236;DHT22;35067;48.134;8.378;2023-02-17T11:32:30;10.30;99.90
49236;DHT22;35067;48.134;8.378;2023-02-17T11:34:34;10.10;99.90
49236;DHT22;35067;48.134;8.378;2023-02-17T11:36:36;10.20;99.90
49236;DHT22;35067;48.134;8.378;2023-02-17T11:40:38;10.30;99.90
49236;DHT22;35067;48.134;8.378;2023-02-17T11:42:38;10.50;99.90
49236;DHT22;35067;48.134;8.378;2023-02-17T11:44:39;10.60;99.90
49236;DHT22;35067;48.134;8.378;2023-02-17T11:46:46;11.30;99.30
49236;DHT22;35067;48.134;8.378;2023-02-17T11:51:42;11.60;95.40
49236;DHT22;35067;48.134;8.378;2023-02-17T11:54:08;11.40;96.00
49236;DHT22;35067;48.134;8.378;2023-02-17T11:56:22;11.10;98.30
49236;DHT22;35067;48.134;8.378;2023-02-17T12:00:59;11.10;97.60
49236;DHT22;35067;48.134;8.378;2023-02-17T12:03:27;11.00;98.00
49236;DHT22;35067;48.134;8.378;2023-02-17T12:16:26;11.60;95.50
49236;DHT22;35067;48.134;8.378;2023-02-17T12:18:52;11.40;96.00
49236;DHT22;35067;48.134;8.378;2023-02-17T12:23:23;11.70;95.80
49236;DHT22;35067;48.134;8.378;2023-02-17T12:25:36;11.90;95.00
49236;DHT22;35067;48.134;8.378;2023-02-17T12:31:01;12.80;90.70
49236;DHT22;35067;48.134;8.378;2023-02-17T12:37:49;12.50;90.80
49236;DHT22;35067;48.134;8.378;2023-02-17T12:39:55;12.00;92.60
49236;DHT22;35067;48.134;8.378;2023-02-17T12:42:35;11.90;93.30
49236;DHT22;35067;48.134;8.378;2023-02-17T12:44:41;12.20;93.30
49236;DHT22;35067;48.134;8.378;2023-02-17T12:46:47;12.10;92.00
49236;DHT22;35067;48.134;8.378;2023-02-17T12:51:29;11.70;94.50
49236;DHT22;35067;48.134;8.378;2023-02-17T12:53:44;11.50;94.50
49236;DHT22;35067;48.134;8.378;2023-02-17T12:55:53;11.40;95.50
49236;DHT22;35067;48.134;8.378;2023-02-17T12:58:00;11.20;96.70
49236;DHT22;35067;48.134;8.378;2023-02-17T13:00:15;11.20;97.00
49236;DHT22;35067;48.134;8.378;2023-02-17T13:02:24;11.10;97.80
49236;DHT22;35067;48.134;8.378;2023-02-17T13:04:25;11.00;98.20
49236;DHT22;35067;48.134;8.378;2023-02-17T13:06:35;10.80;99.00
49236;DHT22;35067;48.134;8.378;2023-02-17T13:08:57;10.60;99.90
49236;DHT22;35067;48.134;8.378;2023-02-17T13:11:06;10.50;99.90
49236;DHT22;35067;48.134;8.378;2023-02-17T13:13:24;10.50;99.90
49236;DHT22;35067;48.134;8.378;2023-02-17T13:15:30;10.60;99.90
49236;DHT22;35067;48.134;8.378;2023-02-17T13:17:55;10.80;99.90
49236;DHT22;35067;48.134;8.378;2023-02-17T13:22:21;11.10;98.90
49236;DHT22;35067;48.134;8.378;2023-02-17T13:24:34;11.40;97.90
49236;DHT22;35067;48.134;8.378;2023-02-17T13:26:37;11.50;97.10
49236;DHT22;35067;48.134;8.378;2023-02-17T13:28:42;11.50;96.80
49236;DHT22;35067;48.134;8.378;2023-02-17T13:30:44;11.30;97.30
49236;DHT22;35067;48.134;8.378;2023-02-17T13:37:38;10.70;99.90
49236;DHT22;35067;48.134;8.378;2023-02-17T13:39:41;10.60;99.90
49236;DHT22;35067;48.134;8.378;2023-02-17T13:41:45;10.60;99.90
49236;DHT22;35067;48.134;8.378;2023-02-17T13:43:47;10.60;99.90
49236;DHT22;35067;48.134;8.378;2023-02-17T13:46:03;10.60;99.90
49236;DHT22;35067;48.134;8.378;2023-02-17T13:50:37;10.50;99.90
49236;DHT22;35067;48.134;8.378;2023-02-17T13:52:43;10.40;99.90
49236;DHT22;35067;48.134;8.378;2023-02-17T13:54:55;10.40;99.90
49236;DHT22;35067;48.134;8.378;2023-02-17T13:56:56;10.60;99.90
49236;DHT22;35067;48.134;8.378;2023-02-17T13:59:12;10.70;99.90
49236;DHT22;35067;48.134;8.378;2023-02-17T14:01:19;10.80;99.90
49236;DHT22;35067;48.134;8.378;2023-02-17T14:03:50;10.60;99.90
49236;DHT22;35067;48.134;8.378;2023-02-17T14:05:58;10.60;99.90
49236;DHT22;35067;48.134;8.378;2023-02-17T14:08:06;10.60;99.90
49236;DHT22;35067;48.134;8.378;2023-02-17T14:10:31;10.50;99.90
49236;DHT22;35067;48.134;8.378;2023-02-17T14:12:32;10.50;99.90
49236;DHT22;35067;48.134;8.378;2023-02-17T14:14:36;10.50;99.90
49236;DHT22;35067;48.134;8.378;2023-02-17T14:16:40;10.40;99.90
49236;DHT22;35067;48.134;8.378;2023-02-17T14:18:42;10.40;99.90
49236;DHT22;35067;48.134;8.378;2023-02-17T14:20:43;10.40;99.90
49236;DHT22;35067;48.134;8.378;2023-02-17T14:22:44;10.40;99.90
49236;DHT22;35067;48.134;8.378;2023-02-17T14:24:44;10.30;99.90
49236;DHT22;35067;48.134;8.378;2023-02-17T14:26:47;10.20;99.90
49236;DHT22;35067;48.134;8.378;2023-02-17T14:28:59;10.20;99.90
49236;DHT22;35067;48.134;8.378;2023-02-17T14:31:09;10.10;99.90
49236;DHT22;35067;48.134;8.378;2023-02-17T14:35:22;9.90;99.90
49236;DHT22;35067;48.134;8.378;2023-02-17T14:37:23;9.90;99.90
49236;DHT22;35067;48.134;8.378;2023-02-17T14:39:24;10.10;99.90